Time;durP1;ratioP1;P1;durP2;ratioP2;P2;SDS_P1;SDS_P2;PMS_P1;PMS_P2;Temp;Humidity;BMP_temperature;BMP_pressure;BME280_temperature;BME280_humidity;BME280_pressure;Samples;Min_cycle;Max_cycle;Signal;HPM_P1;HPM_P2
2021/09/26 00:00:55;;;;;;;22.67;14.45;;;17.90;82.40;;;;;;5037150;28;20022;-76
2021/09/26 00:03:20;;;;;;;18.75;14.10;;;18.00;83.10;;;;;;5035721;28;20052;-77
2021/09/26 00:05:46;;;;;;;20.70;14.77;;;18.00;82.80;;;;;;5036884;28;20522;-77
2021/09/26 00:08:12;;;;;;;18.25;13.90;;;18.00;82.60;;;;;;5036969;28;20063;-78
2021/09/26 00:10:38;;;;;;;21.77;14.57;;;17.90;82.20;;;;;;5036818;28;20083;-77
2021/09/26 00:13:04;;;;;;;22.13;13.57;;;18.00;82.20;;;;;;5036104;28;20026;-76
2021/09/26 00:15:30;;;;;;;18.73;13.32;;;18.00;82.30;;;;;;5037137;28;20033;-76
2021/09/26 00:17:57;;;;;;;22.10;14.48;;;18.00;81.90;;;;;;5035752;28;20021;-77
2021/09/26 00:20:23;;;;;;;17.45;12.52;;;18.00;82.40;;;;;;5035051;28;20022;-77
2021/09/26 00:22:50;;;;;;;16.80;12.35;;;18.00;81.80;;;;;;5036797;28;20032;-78
2021/09/26 00:25:17;;;;;;;15.45;11.90;;;17.90;81.90;;;;;;5036658;28;20053;-77
2021/09/26 00:27:44;;;;;;;17.00;11.43;;;18.00;81.70;;;;;;5037969;28;20028;-77
2021/09/26 00:30:11;;;;;;;18.30;12.10;;;17.90;81.40;;;;;;5049586;28;20467;-77
2021/09/26 00:32:37;;;;;;;22.77;15.93;;;18.00;81.10;;;;;;5033487;28;20024;-77
2021/09/26 00:35:04;;;;;;;20.33;14.93;;;18.00;82.20;;;;;;5036799;28;20042;-77
2021/09/26 00:37:29;;;;;;;21.92;15.38;;;18.00;82.30;;;;;;5037188;28;20037;-77
2021/09/26 00:39:56;;;;;;;21.65;14.20;;;18.00;82.70;;;;;;5033970;28;20038;-77
2021/09/26 00:42:21;;;;;;;37.25;25.33;;;17.90;82.40;;;;;;5036822;28;20511;-77
2021/09/26 00:44:47;;;;;;;36.03;25.13;;;18.00;82.10;;;;;;5037360;28;20025;-77
2021/09/26 00:47:13;;;;;;;34.50;23.00;;;18.00;82.00;;;;;;5036648;28;20037;-77
2021/09/26 00:49:39;;;;;;;29.15;19.92;;;18.00;82.10;;;;;;5037178;28;20025;-77
2021/09/26 00:52:05;;;;;;;27.48;18.65;;;18.00;81.90;;;;;;5040291;28;20022;-77
2021/09/26 00:54:32;;;;;;;22.85;17.05;;;18.00;81.40;;;;;;5040885;28;20037;-77
2021/09/26 00:56:58;;;;;;;25.48;16.10;;;18.00;81.70;;;;;;5040458;28;20025;-77
2021/09/26 00:59:24;;;;;;;21.42;15.13;;;18.00;82.20;;;;;;5040672;28;20171;-77
2021/09/26 01:01:50;;;;;;;19.83;14.25;;;18.00;82.30;;;;;;5040003;28;20060;-78
2021/09/26 01:04:17;;;;;;;19.13;13.98;;;17.90;81.70;;;;;;5040526;28;20044;-77
2021/09/26 01:07:20;;;;;;;21.08;13.77;;;18.00;81.30;;;;;;5042346;28;20426;-78
2021/09/26 01:10:09;;;;;;;20.35;13.40;;;17.90;80.90;;;;;;5034541;28;20438;-78
2021/09/26 01:12:41;;;;;;;17.45;12.85;;;17.90;80.60;;;;;;5040652;28;20423;-78
2021/09/26 01:15:20;;;;;;;20.35;13.55;;;17.90;80.50;;;;;;5040005;28;20025;-76
2021/09/26 01:18:05;;;;;;;19.17;11.95;;;17.90;80.50;;;;;;5035530;28;20025;-75
2021/09/26 01:20:57;;;;;;;18.60;12.23;;;17.80;80.60;;;;;;5036840;28;20039;-75
2021/09/26 01:23:49;;;;;;;18.48;13.63;;;17.90;81.10;;;;;;5034117;28;20101;-75
2021/09/26 01:26:41;;;;;;;23.08;14.07;;;17.90;82.00;;;;;;5034484;28;20384;-76
2021/09/26 01:29:28;;;;;;;21.98;14.68;;;17.90;81.80;;;;;;5040542;28;20430;-76
2021/09/26 01:31:58;;;;;;;20.38;13.05;;;17.90;82.20;;;;;;5035463;28;20435;-78
2021/09/26 01:34:30;;;;;;;18.95;13.35;;;18.00;82.20;;;;;;5039680;28;20022;-78
2021/09/26 01:37:05;;;;;;;17.50;12.32;;;18.00;81.70;;;;;;5026487;28;20403;-81
2021/09/26 01:39:42;;;;;;;20.45;13.25;;;18.00;81.70;;;;;;5037314;28;20037;-78
2021/09/26 01:42:19;;;;;;;23.92;17.02;;;18.00;82.00;;;;;;5036908;28;20033;-81
2021/09/26 01:45:08;;;;;;;22.88;15.60;;;18.00;84.50;;;;;;5040397;28;20033;-82
2021/09/26 01:47:50;;;;;;;11.48;7.63;;;18.10;85.20;;;;;;5038856;28;20026;-78
2021/09/26 01:50:17;;;;;;;8.80;4.50;;;18.10;85.70;;;;;;5037496;28;20504;-81
2021/09/26 01:52:47;;;;;;;8.90;4.03;;;18.00;85.40;;;;;;5038344;28;20033;-82
2021/09/26 01:55:13;;;;;;;9.18;3.85;;;17.90;85.80;;;;;;5039301;28;20025;-78
2021/09/26 01:57:40;;;;;;;7.50;4.03;;;17.80;85.50;;;;;;5039453;28;20109;-77
2021/09/26 02:00:10;;;;;;;10.23;5.25;;;17.70;85.60;;;;;;5038787;28;20022;-79
2021/09/26 02:02:36;;;;;;;7.30;3.65;;;17.60;86.20;;;;;;5039550;28;20041;-78
2021/09/26 02:05:07;;;;;;;7.13;3.53;;;17.60;87.00;;;;;;5039436;28;20121;-77
2021/09/26 02:07:37;;;;;;;6.10;3.58;;;17.50;86.50;;;;;;5039037;28;20025;-77
2021/09/26 02:10:05;;;;;;;6.60;4.00;;;17.50;86.30;;;;;;5037024;28;20024;-77
2021/09/26 02:12:37;;;;;;;7.32;3.30;;;17.50;86.20;;;;;;5037187;28;20026;-78
2021/09/26 02:15:10;;;;;;;6.40;3.40;;;17.50;85.30;;;;;;5037337;28;20034;-78
2021/09/26 02:17:37;;;;;;;8.02;3.17;;;17.50;85.00;;;;;;5038162;28;20087;-78
2021/09/26 02:20:06;;;;;;;6.55;4.10;;;17.50;85.30;;;;;;5038994;28;20057;-78
2021/09/26 02:22:33;;;;;;;8.32;3.47;;;17.50;85.30;;;;;;5035813;28;20017;-78
2021/09/26 02:25:06;;;;;;;6.13;3.40;;;17.50;85.40;;;;;;5037348;28;20496;-78
2021/09/26 02:27:32;;;;;;;6.03;3.67;;;17.50;85.30;;;;;;5037236;28;20032;-78
2021/09/26 02:29:58;;;;;;;7.75;3.22;;;17.50;84.50;;;;;;5038812;28;20029;-80
2021/09/26 02:32:24;;;;;;;6.43;3.38;;;17.60;84.80;;;;;;5038003;28;20032;-78
2021/09/26 02:34:56;;;;;;;5.55;3.17;;;17.50;84.90;;;;;;5038181;28;20068;-78
2021/09/26 02:37:22;;;;;;;5.07;3.07;;;17.50;84.40;;;;;;5038579;28;20030;-78
2021/09/26 02:39:48;;;;;;;6.65;3.15;;;17.50;84.10;;;;;;5037207;28;20288;-78
2021/09/26 02:42:26;;;;;;;7.80;4.68;;;17.50;83.50;;;;;;5036754;28;20026;-79
2021/09/26 02:45:07;;;;;;;10.35;6.30;;;17.50;83.20;;;;;;5037410;28;20079;-77
2021/09/26 02:47:54;;;;;;;9.40;6.20;;;17.50;82.80;;;;;;5036109;28;20033;-76
2021/09/26 02:50:20;;;;;;;8.50;5.75;;;17.50;82.60;;;;;;5033104;28;20045;-77
2021/09/26 02:52:46;;;;;;;6.78;4.55;;;17.50;82.30;;;;;;5035976;28;20064;-79
2021/09/26 02:55:14;;;;;;;6.72;4.07;;;17.60;82.20;;;;;;5031686;28;20021;-79
2021/09/26 02:57:41;;;;;;;5.60;3.58;;;17.50;82.00;;;;;;5037386;28;20108;-77
2021/09/26 03:00:08;;;;;;;6.45;3.70;;;17.60;82.10;;;;;;5038100;28;20028;-77
2021/09/26 03:02:35;;;;;;;5.57;3.40;;;17.60;81.90;;;;;;5046099;28;20021;-78
2021/09/26 03:05:01;;;;;;;6.28;3.80;;;17.60;82.80;;;;;;5032485;28;20079;-79
2021/09/26 03:07:27;;;;;;;8.00;4.55;;;17.60;82.30;;;;;;5036569;28;20530;-79
2021/09/26 03:09:53;;;;;;;6.22;4.10;;;17.50;82.00;;;;;;5035705;28;20076;-79
2021/09/26 03:12:21;;;;;;;7.70;4.20;;;17.50;82.00;;;;;;5035182;28;20029;-79
2021/09/26 03:14:49;;;;;;;6.45;3.97;;;17.50;81.70;;;;;;5037877;28;20047;-81
2021/09/26 03:17:15;;;;;;;5.13;3.60;;;17.50;81.60;;;;;;5036402;28;20028;-80
2021/09/26 03:19:42;;;;;;;5.82;3.65;;;17.50;81.60;;;;;;5036124;28;20029;-80
2021/09/26 03:22:09;;;;;;;5.90;3.75;;;17.50;81.50;;;;;;5037652;28;20047;-79
2021/09/26 03:24:36;;;;;;;5.95;4.15;;;17.50;81.30;;;;;;5035827;28;20108;-80
2021/09/26 03:27:04;;;;;;;7.95;4.50;;;17.50;81.30;;;;;;5034937;28;20117;-79
2021/09/26 03:29:33;;;;;;;7.13;4.95;;;17.50;81.30;;;;;;5036885;28;20054;-79
2021/09/26 03:31:59;;;;;;;8.35;4.40;;;17.50;81.30;;;;;;5033279;28;20025;-81
2021/09/26 03:34:26;;;;;;;7.13;4.47;;;17.50;81.30;;;;;;5035283;28;20051;-81
2021/09/26 03:36:51;;;;;;;7.25;4.30;;;17.50;81.30;;;;;;5044087;28;20031;-77
2021/09/26 03:39:17;;;;;;;6.88;3.95;;;17.50;81.30;;;;;;5046225;28;20029;-79
2021/09/26 03:41:43;;;;;;;10.15;5.38;;;17.50;81.40;;;;;;5035789;28;20032;-78
2021/09/26 03:44:09;;;;;;;8.40;4.65;;;17.50;81.30;;;;;;5037159;28;20034;-80
2021/09/26 03:46:35;;;;;;;7.35;4.72;;;17.50;81.20;;;;;;5039620;28;20099;-77
2021/09/26 03:49:01;;;;;;;8.38;4.75;;;17.50;81.50;;;;;;5036329;28;20057;-78
2021/09/26 03:51:43;;;;;;;6.88;4.10;;;17.50;81.50;;;;;;5036460;28;20038;-81
2021/09/26 03:54:09;;;;;;;10.00;5.28;;;17.50;81.30;;;;;;5035711;28;20030;-80
2021/09/26 03:56:35;;;;;;;9.85;4.80;;;17.50;81.30;;;;;;5046387;28;20546;-79
2021/09/26 03:59:00;;;;;;;14.65;10.38;;;17.50;81.20;;;;;;5052375;28;20021;-80
2021/09/26 04:01:27;;;;;;;19.10;13.98;;;17.50;81.20;;;;;;5036389;28;20018;-80
2021/09/26 04:03:52;;;;;;;18.48;12.75;;;17.50;81.10;;;;;;5036731;28;20029;-77
2021/09/26 04:06:18;;;;;;;17.17;11.13;;;17.60;81.30;;;;;;5036649;28;20013;-79
2021/09/26 04:08:44;;;;;;;16.55;10.32;;;17.60;81.80;;;;;;5029290;28;20031;-80
2021/09/26 04:11:10;;;;;;;15.43;10.35;;;17.60;81.20;;;;;;5034510;28;20041;-78
2021/09/26 04:13:36;;;;;;;13.35;8.60;;;17.60;81.10;;;;;;5039521;28;20085;-81
2021/09/26 04:16:02;;;;;;;13.27;9.15;;;17.60;81.10;;;;;;5043269;28;20022;-79
2021/09/26 04:18:28;;;;;;;12.32;8.32;;;17.60;81.30;;;;;;5036738;28;20084;-82
2021/09/26 04:20:54;;;;;;;10.75;7.65;;;17.60;81.20;;;;;;5036444;28;20038;-81
2021/09/26 04:23:21;;;;;;;10.60;7.45;;;17.60;81.10;;;;;;5039727;28;20613;-80
2021/09/26 04:25:46;;;;;;;13.45;7.78;;;17.60;81.00;;;;;;5034253;28;20029;-80
2021/09/26 04:28:12;;;;;;;12.18;8.73;;;17.60;81.50;;;;;;5035204;28;20132;-81
2021/09/26 04:30:38;;;;;;;12.23;8.15;;;17.60;81.60;;;;;;5036115;28;20029;-78
2021/09/26 04:33:06;;;;;;;16.83;10.65;;;17.70;81.80;;;;;;5035917;28;20027;-79
2021/09/26 04:35:31;;;;;;;13.60;10.05;;;17.70;84.80;;;;;;5035922;28;20120;-79
2021/09/26 04:37:58;;;;;;;18.05;12.35;;;17.70;84.50;;;;;;5036959;28;20101;-81
2021/09/26 04:40:24;;;;;;;19.38;13.43;;;17.70;85.90;;;;;;5035662;28;20113;-80
2021/09/26 04:42:51;;;;;;;25.33;17.30;;;17.80;86.50;;;;;;5034675;28;20033;-81
2021/09/26 04:45:17;;;;;;;30.45;18.33;;;17.80;88.40;;;;;;5036821;28;20026;-80
2021/09/26 04:47:43;;;;;;;24.27;15.68;;;17.80;89.40;;;;;;5036842;28;20025;-80
2021/09/26 04:50:10;;;;;;;27.90;17.73;;;17.90;88.30;;;;;;5035667;28;20029;-80
2021/09/26 04:52:37;;;;;;;26.90;18.10;;;17.90;89.40;;;;;;5035138;28;20488;-80
2021/09/26 04:55:04;;;;;;;31.80;19.08;;;17.90;90.00;;;;;;5036790;28;20017;-80
2021/09/26 04:57:30;;;;;;;30.52;19.08;;;17.90;90.50;;;;;;5031720;28;20033;-80
2021/09/26 04:59:56;;;;;;;30.65;18.67;;;17.90;90.40;;;;;;5035309;28;20232;-80
2021/09/26 05:02:22;;;;;;;30.50;18.55;;;17.90;90.50;;;;;;5034373;28;20128;-80
2021/09/26 05:04:48;;;;;;;31.55;19.95;;;17.90;90.70;;;;;;5036476;28;20448;-79
2021/09/26 05:07:14;;;;;;;28.65;19.40;;;17.90;90.70;;;;;;5036652;28;20476;-79
2021/09/26 05:09:40;;;;;;;26.38;17.33;;;18.00;90.60;;;;;;5034659;28;20056;-77
2021/09/26 05:12:06;;;;;;;27.98;17.48;;;17.90;90.80;;;;;;5035853;28;20095;-78
2021/09/26 05:14:32;;;;;;;30.55;19.63;;;17.90;90.30;;;;;;5035079;28;20488;-79
2021/09/26 05:16:58;;;;;;;23.75;16.88;;;17.90;90.80;;;;;;5038084;28;20048;-79
2021/09/26 05:19:23;;;;;;;31.98;20.67;;;17.90;90.90;;;;;;5035922;28;20025;-79
2021/09/26 05:21:49;;;;;;;29.23;18.15;;;17.90;90.90;;;;;;5035416;28;20472;-79
2021/09/26 05:24:15;;;;;;;29.23;18.65;;;17.90;91.00;;;;;;5035616;28;20032;-79
2021/09/26 05:26:41;;;;;;;31.67;19.70;;;18.00;90.90;;;;;;5018529;28;20140;-79
2021/09/26 05:29:07;;;;;;;32.90;19.77;;;18.00;91.10;;;;;;5037454;28;20032;-78
2021/09/26 05:31:34;;;;;;;27.35;18.15;;;17.90;91.10;;;;;;5035461;28;20043;-79
2021/09/26 05:34:00;;;;;;;28.10;18.08;;;17.90;91.10;;;;;;5037746;28;20030;-79
2021/09/26 05:36:26;;;;;;;28.95;18.10;;;17.90;90.90;;;;;;5039506;28;20080;-79
2021/09/26 05:38:53;;;;;;;28.48;18.52;;;17.90;90.80;;;;;;5039879;28;20025;-78
2021/09/26 05:41:19;;;;;;;31.30;20.83;;;17.90;90.80;;;;;;5038783;28;20022;-79
2021/09/26 05:43:44;;;;;;;28.52;18.23;;;17.90;91.20;;;;;;5037511;28;20032;-78
2021/09/26 05:46:11;;;;;;;26.58;17.40;;;17.90;90.70;;;;;;5038944;28;20448;-79
2021/09/26 05:48:36;;;;;;;29.23;18.65;;;17.90;90.60;;;;;;5039738;28;20527;-79
2021/09/26 05:51:02;;;;;;;28.20;20.38;;;17.90;90.30;;;;;;5047912;28;20037;-78
2021/09/26 05:53:28;;;;;;;31.98;20.88;;;17.90;90.20;;;;;;5041505;28;20091;-79
2021/09/26 05:55:54;;;;;;;32.00;20.55;;;17.90;90.70;;;;;;5037900;28;20033;-78
2021/09/26 05:58:20;;;;;;;32.03;20.13;;;17.90;91.00;;;;;;5039867;28;20026;-78
2021/09/26 06:00:47;;;;;;;33.05;21.45;;;18.00;91.10;;;;;;5041707;28;20038;-78
2021/09/26 06:03:14;;;;;;;37.15;23.17;;;17.90;91.10;;;;;;5038371;28;20028;-79
2021/09/26 06:05:41;;;;;;;41.22;22.52;;;17.90;91.10;;;;;;5041436;28;20036;-82
2021/09/26 06:08:10;;;;;;;32.17;20.80;;;18.00;91.50;;;;;;5021477;28;20029;-81
2021/09/26 06:10:36;;;;;;;33.30;20.85;;;18.00;91.40;;;;;;5038584;28;20033;-82
2021/09/26 06:13:02;;;;;;;31.45;20.75;;;17.90;91.50;;;;;;5049247;28;20024;-83
2021/09/26 06:15:30;;;;;;;31.80;19.27;;;17.90;91.30;;;;;;5046257;28;20447;-82
2021/09/26 06:17:59;;;;;;;30.83;18.50;;;17.90;91.20;;;;;;5045238;28;20013;-82
2021/09/26 06:20:25;;;;;;;29.88;20.15;;;17.90;91.10;;;;;;5040886;28;20074;-81
2021/09/26 06:22:51;;;;;;;31.65;19.50;;;17.90;90.90;;;;;;5038339;28;20056;-81
2021/09/26 06:25:17;;;;;;;35.63;19.75;;;17.90;91.10;;;;;;5047764;28;20523;-81
2021/09/26 06:27:43;;;;;;;31.90;20.23;;;17.90;91.30;;;;;;5039080;28;20021;-80
2021/09/26 06:30:10;;;;;;;29.60;20.30;;;17.80;91.00;;;;;;5037408;28;20038;-81
2021/09/26 06:32:36;;;;;;;33.55;19.38;;;17.90;91.30;;;;;;5037260;28;20033;-81
2021/09/26 06:35:06;;;;;;;27.50;18.90;;;17.90;91.30;;;;;;5038612;28;20055;-80
2021/09/26 06:37:32;;;;;;;25.25;17.65;;;17.80;91.20;;;;;;5050466;28;20526;-81
2021/09/26 06:39:58;;;;;;;29.52;18.55;;;17.80;91.10;;;;;;5044901;28;20026;-80
2021/09/26 06:42:24;;;;;;;28.63;17.33;;;17.90;91.40;;;;;;5037262;28;20489;-80
2021/09/26 06:44:50;;;;;;;24.30;14.65;;;17.90;91.10;;;;;;5037191;28;20029;-80
2021/09/26 06:47:16;;;;;;;26.52;17.02;;;17.80;90.70;;;;;;5038161;28;20041;-82
2021/09/26 06:49:42;;;;;;;25.10;15.50;;;17.90;91.10;;;;;;5038579;28;20054;-83
2021/09/26 06:52:08;;;;;;;21.67;15.00;;;17.90;90.90;;;;;;5043524;28;20082;-80
2021/09/26 06:54:34;;;;;;;26.70;15.18;;;17.90;90.70;;;;;;5040216;28;20104;-82
2021/09/26 06:57:00;;;;;;;23.48;16.52;;;17.90;91.00;;;;;;5037961;28;20079;-80
2021/09/26 06:59:26;;;;;;;20.85;14.65;;;18.00;91.10;;;;;;5050370;28;20029;-81
2021/09/26 07:01:52;;;;;;;20.65;13.73;;;18.00;90.90;;;;;;5037172;28;20037;-82
2021/09/26 07:04:18;;;;;;;18.75;12.65;;;18.10;90.60;;;;;;5048271;28;20036;-81
2021/09/26 07:06:44;;;;;;;21.00;13.85;;;18.10;90.30;;;;;;5037978;28;20025;-82
2021/09/26 07:09:09;;;;;;;18.33;13.30;;;18.20;90.40;;;;;;5036128;28;20021;-82
2021/09/26 07:11:35;;;;;;;19.40;13.65;;;18.20;90.30;;;;;;5037057;28;20606;-82
2021/09/26 07:14:01;;;;;;;22.40;14.02;;;18.30;90.30;;;;;;5037886;28;20075;-81
2021/09/26 07:16:27;;;;;;;18.20;12.02;;;18.30;90.10;;;;;;5034895;28;20053;-81
2021/09/26 07:18:53;;;;;;;22.23;15.98;;;18.40;90.00;;;;;;5035897;28;20045;-81
2021/09/26 07:21:19;;;;;;;22.40;15.90;;;18.40;90.00;;;;;;5037159;28;20021;-76
2021/09/26 07:23:45;;;;;;;21.17;14.98;;;18.50;89.60;;;;;;5037600;28;20032;-77
2021/09/26 07:26:11;;;;;;;18.23;11.98;;;18.50;89.20;;;;;;5036780;28;20029;-80
2021/09/26 07:28:37;;;;;;;20.20;12.38;;;18.50;89.30;;;;;;5036718;28;20036;-80
2021/09/26 07:31:03;;;;;;;19.10;12.20;;;18.60;89.30;;;;;;5035599;28;20028;-79
2021/09/26 07:33:29;;;;;;;15.93;10.45;;;18.60;89.10;;;;;;5037446;28;20022;-79
2021/09/26 07:35:55;;;;;;;14.15;10.43;;;18.60;88.90;;;;;;5036565;28;20064;-79
2021/09/26 07:38:21;;;;;;;15.23;10.18;;;18.70;89.10;;;;;;5056333;28;20029;-80
2021/09/26 07:40:47;;;;;;;15.60;9.80;;;18.70;88.90;;;;;;5039875;28;20017;-80
2021/09/26 07:43:13;;;;;;;13.57;9.25;;;18.70;88.60;;;;;;5037884;28;20052;-80
2021/09/26 07:45:39;;;;;;;15.13;10.18;;;18.70;88.00;;;;;;5037402;28;20555;-79
2021/09/26 07:48:05;;;;;;;12.32;8.88;;;18.70;88.40;;;;;;5037583;28;20063;-80
2021/09/26 07:50:31;;;;;;;13.75;9.27;;;18.70;87.80;;;;;;5037642;28;20022;-80
2021/09/26 07:52:57;;;;;;;12.75;8.68;;;18.70;88.00;;;;;;5037177;28;20037;-80
2021/09/26 07:55:24;;;;;;;14.68;9.68;;;18.80;87.90;;;;;;5038776;28;20021;-80
2021/09/26 07:57:51;;;;;;;12.10;9.32;;;18.80;87.90;;;;;;5041371;28;20039;-79
2021/09/26 08:00:19;;;;;;;12.75;8.88;;;18.90;87.50;;;;;;5036473;28;20033;-80
2021/09/26 08:02:45;;;;;;;12.50;8.90;;;18.90;87.70;;;;;;5036086;28;20550;-79
2021/09/26 08:05:11;;;;;;;13.35;9.10;;;18.90;87.00;;;;;;5037245;28;20159;-79
2021/09/26 08:07:38;;;;;;;13.88;9.40;;;18.90;87.00;;;;;;5035998;28;20025;-80
2021/09/26 08:10:06;;;;;;;17.23;9.18;;;18.90;86.70;;;;;;5031507;28;20057;-80
2021/09/26 08:12:32;;;;;;;13.30;9.23;;;18.90;86.80;;;;;;5035094;28;20029;-79
2021/09/26 08:14:58;;;;;;;15.18;9.57;;;18.90;87.00;;;;;;5040498;28;20096;-80
2021/09/26 08:17:24;;;;;;;12.45;8.35;;;18.90;86.80;;;;;;5042867;28;20030;-80
2021/09/26 08:19:50;;;;;;;12.73;8.80;;;18.80;86.80;;;;;;5039716;28;20025;-80
2021/09/26 08:22:17;;;;;;;13.90;9.60;;;18.90;86.40;;;;;;5040685;28;20128;-80
2021/09/26 08:24:43;;;;;;;12.85;8.40;;;18.80;86.10;;;;;;5041721;28;20025;-80
2021/09/26 08:27:09;;;;;;;13.90;8.68;;;18.80;86.10;;;;;;5037056;28;20030;-80
2021/09/26 08:29:35;;;;;;;13.32;8.57;;;18.80;85.70;;;;;;5037223;28;20121;-81
2021/09/26 08:32:02;;;;;;;13.50;9.60;;;18.80;85.70;;;;;;5035192;28;20053;-80
2021/09/26 08:34:30;;;;;;;13.35;9.18;;;18.80;85.30;;;;;;5031586;28;20017;-79
2021/09/26 08:36:56;;;;;;;11.90;9.63;;;18.70;85.30;;;;;;5035934;28;20030;-80
2021/09/26 08:39:21;;;;;;;13.18;9.43;;;18.70;86.20;;;;;;5049267;28;20020;-80
2021/09/26 08:41:55;;;;;;;14.80;8.85;;;18.70;85.40;;;;;;5037332;28;20025;-80
2021/09/26 08:44:26;;;;;;;13.93;9.32;;;18.80;85.40;;;;;;5048825;28;20022;-80
2021/09/26 08:46:53;;;;;;;13.38;9.57;;;18.80;85.50;;;;;;5037507;28;20060;-80
2021/09/26 08:49:20;;;;;;;18.00;10.68;;;18.90;85.20;;;;;;5037351;28;20029;-80
2021/09/26 08:51:47;;;;;;;13.07;9.73;;;18.90;84.70;;;;;;5036611;28;20079;-80
2021/09/26 08:54:14;;;;;;;16.67;11.02;;;19.00;84.30;;;;;;5035176;28;20089;-80
2021/09/26 08:56:41;;;;;;;14.98;11.23;;;19.00;84.30;;;;;;5037648;28;20033;-80
2021/09/26 08:59:11;;;;;;;14.65;10.40;;;19.10;84.50;;;;;;5038484;28;20048;-80
2021/09/26 09:01:38;;;;;;;16.70;11.55;;;19.30;83.60;;;;;;5044843;28;20511;-80
2021/09/26 09:04:04;;;;;;;13.93;10.20;;;19.30;83.40;;;;;;5036525;28;20080;-80
2021/09/26 09:06:44;;;;;;;14.27;10.45;;;19.30;83.20;;;;;;5036570;28;20036;-80
2021/09/26 09:09:15;;;;;;;16.65;10.48;;;19.30;83.20;;;;;;5023695;28;20026;-81
2021/09/26 09:12:03;;;;;;;15.07;11.50;;;19.40;83.00;;;;;;5036912;28;20032;-80
2021/09/26 09:14:57;;;;;;;16.15;11.75;;;19.30;82.50;;;;;;5040434;28;20109;-80
2021/09/26 09:17:30;;;;;;;14.93;10.88;;;19.20;82.50;;;;;;5030152;28;20026;-80
2021/09/26 09:20:17;;;;;;;16.98;11.50;;;19.30;82.70;;;;;;5052094;28;20520;-82
2021/09/26 09:22:46;;;;;;;13.98;10.23;;;19.20;83.60;;;;;;5041747;28;20060;-79
2021/09/26 09:25:51;;;;;;;14.43;10.88;;;19.20;83.10;;;;;;5042368;28;20079;-79
2021/09/26 09:28:23;;;;;;;15.85;11.80;;;19.20;83.30;;;;;;5037419;28;20057;-79
2021/09/26 09:30:51;;;;;;;16.00;11.32;;;19.30;83.10;;;;;;5036080;28;20081;-79
2021/09/26 09:33:21;;;;;;;16.02;11.23;;;19.30;82.90;;;;;;5037624;28;20037;-78
2021/09/26 09:35:50;;;;;;;16.67;10.82;;;19.30;82.90;;;;;;5037499;28;20514;-83
2021/09/26 09:38:36;;;;;;;14.88;11.27;;;19.40;83.40;;;;;;5041481;28;20041;-77
2021/09/26 09:41:03;;;;;;;17.30;11.13;;;19.70;84.20;;;;;;5043906;28;20026;-80
2021/09/26 09:43:29;;;;;;;14.32;10.13;;;20.00;83.00;;;;;;5053555;28;20030;-79
2021/09/26 09:45:58;;;;;;;16.25;11.63;;;20.10;82.50;;;;;;5040210;28;20029;-78
2021/09/26 09:48:26;;;;;;;18.77;11.95;;;20.10;81.80;;;;;;5043482;28;20028;-80
2021/09/26 09:51:06;;;;;;;18.40;11.90;;;20.00;80.60;;;;;;5048668;28;20017;-82
2021/09/26 09:53:43;;;;;;;18.13;12.30;;;19.90;80.00;;;;;;5027233;28;20399;-79
2021/09/26 09:56:17;;;;;;;16.83;11.07;;;19.80;80.00;;;;;;5053299;28;20021;-78
2021/09/26 09:58:50;;;;;;;15.15;10.88;;;19.60;80.40;;;;;;5040388;28;20068;-80
2021/09/26 10:01:28;;;;;;;16.23;11.18;;;19.60;80.90;;;;;;5039649;28;20014;-78
2021/09/26 10:03:57;;;;;;;14.48;9.82;;;19.50;80.80;;;;;;5039479;28;20037;-77
2021/09/26 10:06:35;;;;;;;12.60;8.40;;;19.40;80.10;;;;;;5040803;28;20392;-76
2021/09/26 10:09:16;;;;;;;13.20;9.10;;;19.40;80.20;;;;;;5038673;28;20041;-76
2021/09/26 10:11:49;;;;;;;12.68;7.85;;;19.50;80.80;;;;;;5030360;28;20030;-76
2021/09/26 10:14:15;;;;;;;;;;;19.70;81.20;;;;;;5049772;28;20063;-76
2021/09/26 10:16:41;;;;;;;12.18;7.68;;;20.10;82.20;;;;;;5047019;28;19905;-75
2021/09/26 10:19:06;;;;;;;11.10;7.18;;;20.60;82.40;;;;;;5040880;28;20025;-75
2021/09/26 10:21:32;;;;;;;14.43;8.40;;;21.10;82.20;;;;;;5038504;28;20068;-75
2021/09/26 10:23:59;;;;;;;13.00;8.13;;;21.60;80.30;;;;;;5038832;28;20036;-76
2021/09/26 10:26:26;;;;;;;9.82;6.93;;;22.00;80.60;;;;;;5037681;28;20112;-76
2021/09/26 10:28:55;;;;;;;9.93;6.75;;;22.40;79.30;;;;;;5037321;28;20123;-76
2021/09/26 10:31:23;;;;;;;9.48;6.80;;;22.90;77.00;;;;;;5036381;28;20022;-75
2021/09/26 10:33:50;;;;;;;8.93;6.63;;;23.40;75.00;;;;;;5043270;28;20560;-76
2021/09/26 10:36:18;;;;;;;9.98;5.63;;;23.50;73.40;;;;;;5041020;28;20041;-76
2021/09/26 10:38:48;;;;;;;8.50;4.88;;;23.60;72.80;;;;;;5052222;28;20014;-76
2021/09/26 10:41:14;;;;;;;8.77;5.47;;;23.50;73.00;;;;;;5038010;28;20037;-77
2021/09/26 10:43:41;;;;;;;8.10;4.60;;;23.60;71.90;;;;;;5038914;28;20039;-76
2021/09/26 10:46:23;;;;;;;6.45;4.50;;;24.00;70.20;;;;;;5051385;28;20048;-78
2021/09/26 10:49:09;;;;;;;5.97;4.10;;;24.40;70.50;;;;;;5027341;28;20098;-77
2021/09/26 10:51:56;;;;;;;7.70;5.10;;;25.10;67.70;;;;;;5054101;28;20514;-77
2021/09/26 10:54:23;;;;;;;6.03;4.10;;;25.40;66.90;;;;;;5044230;28;20202;-77
2021/09/26 10:57:11;;;;;;;5.55;3.83;;;25.50;65.00;;;;;;5045061;28;20029;-76
2021/09/26 10:59:38;;;;;;;6.57;4.03;;;25.50;67.90;;;;;;5046157;28;20038;-76
2021/09/26 11:02:29;;;;;;;7.00;4.78;;;25.40;67.30;;;;;;5045252;28;20114;-76
2021/09/26 11:05:00;;;;;;;7.50;4.80;;;25.10;65.60;;;;;;5036489;28;20072;-76
2021/09/26 11:07:28;;;;;;;6.68;4.30;;;24.80;65.90;;;;;;5039761;28;20256;-76
2021/09/26 11:09:59;;;;;;;8.23;4.50;;;24.50;67.30;;;;;;5026916;28;20026;-76
2021/09/26 11:12:45;;;;;;;7.00;4.60;;;24.40;68.30;;;;;;5025152;28;20026;-76
2021/09/26 11:15:15;;;;;;;6.88;4.30;;;24.20;68.20;;;;;;5050351;28;20021;-75
2021/09/26 11:17:47;;;;;;;6.68;3.80;;;24.10;67.70;;;;;;5032638;28;20499;-76
2021/09/26 11:20:25;;;;;;;6.13;3.75;;;23.90;68.20;;;;;;5038471;28;20021;-76
2021/09/26 11:23:07;;;;;;;6.50;3.88;;;23.90;69.30;;;;;;5049388;28;20028;-75
2021/09/26 11:26:03;;;;;;;6.18;3.78;;;24.00;67.70;;;;;;5036335;28;20444;-76
2021/09/26 11:28:35;;;;;;;7.38;4.00;;;23.90;68.40;;;;;;5051495;28;20028;-76
2021/09/26 11:31:04;;;;;;;5.78;3.63;;;23.90;68.00;;;;;;5034008;28;20030;-76
2021/09/26 11:34:00;;;;;;;8.63;4.40;;;23.80;66.60;;;;;;5040232;28;20459;-76
2021/09/26 11:36:29;;;;;;;5.63;3.75;;;23.70;66.60;;;;;;5037541;28;20038;-76
2021/09/26 11:38:56;;;;;;;9.57;4.32;;;23.50;66.70;;;;;;5047781;28;20030;-76
2021/09/26 11:41:34;;;;;;;6.88;4.32;;;23.40;66.90;;;;;;5038019;28;20048;-77
2021/09/26 11:44:03;;;;;;;5.65;4.07;;;23.40;67.90;;;;;;5046995;28;20037;-76
2021/09/26 11:46:30;;;;;;;6.13;3.50;;;23.70;67.00;;;;;;5051129;28;20564;-76
2021/09/26 11:49:07;;;;;;;7.15;3.67;;;23.90;66.50;;;;;;5037295;28;20112;-76
2021/09/26 11:51:35;;;;;;;6.10;3.60;;;24.00;66.10;;;;;;5036349;28;20508;-76
2021/09/26 11:54:04;;;;;;;6.45;3.90;;;24.20;66.90;;;;;;5036680;28;20026;-76
2021/09/26 11:56:43;;;;;;;5.93;3.83;;;24.50;65.70;;;;;;5036229;28;20021;-75
2021/09/26 11:59:14;;;;;;;5.35;3.35;;;24.80;65.30;;;;;;5035767;28;20080;-76
2021/09/26 12:01:43;;;;;;;6.40;3.10;;;25.10;66.10;;;;;;5036031;28;20113;-76
2021/09/26 12:04:23;;;;;;;6.13;3.10;;;25.40;64.50;;;;;;5035876;28;20275;-76
2021/09/26 12:06:59;;;;;;;6.78;3.20;;;25.70;63.60;;;;;;5037765;28;20030;-76
2021/09/26 12:09:40;;;;;;;7.40;3.25;;;25.70;62.20;;;;;;5036311;28;20048;-78
2021/09/26 12:12:14;;;;;;;8.38;3.75;;;25.70;60.60;;;;;;5032889;28;20032;-76
2021/09/26 12:14:43;;;;;;;4.53;2.60;;;25.50;61.60;;;;;;5036326;28;20396;-79
2021/09/26 12:17:11;;;;;;;4.72;2.30;;;25.50;61.60;;;;;;5035888;28;20022;-75
2021/09/26 12:19:38;;;;;;;4.63;2.38;;;25.60;60.60;;;;;;5037411;28;20411;-77
2021/09/26 12:22:08;;;;;;;5.35;2.33;;;25.90;60.50;;;;;;5037281;28;20033;-79
2021/09/26 12:25:03;;;;;;;3.47;2.15;;;26.00;59.80;;;;;;5036987;28;20026;-79
2021/09/26 12:27:34;;;;;;;3.80;2.28;;;26.00;59.50;;;;;;5034142;28;20045;-78
2021/09/26 12:29:59;;;;;;;4.95;2.40;;;25.70;57.70;;;;;;5035929;28;20022;-78
2021/09/26 12:32:31;;;;;;;4.13;2.67;;;25.50;59.40;;;;;;5030991;28;20044;-79
2021/09/26 12:35:00;;;;;;;4.82;2.28;;;25.40;58.80;;;;;;5034432;28;20034;-79
2021/09/26 12:37:30;;;;;;;4.20;2.30;;;25.20;60.40;;;;;;5036730;28;20047;-80
2021/09/26 12:40:00;;;;;;;4.30;2.20;;;25.00;59.10;;;;;;5033837;28;20041;-80
2021/09/26 12:42:33;;;;;;;3.92;2.33;;;24.90;59.10;;;;;;5037131;28;20105;-80
2021/09/26 12:45:27;;;;;;;4.55;2.38;;;24.80;60.00;;;;;;5049828;28;20069;-78
2021/09/26 12:47:54;;;;;;;5.05;2.58;;;24.80;61.70;;;;;;5035145;28;20116;-78